Time;durP1;ratioP1;P1;durP2;ratioP2;P2;SDS_P1;SDS_P2;PMS_P1;PMS_P2;Temp;Humidity;BMP_temperature;BMP_pressure;BME280_temperature;BME280_humidity;BME280_pressure;Samples;Min_cycle;Max_cycle;Signal;HPM_P1;HPM_P2
2021/12/16 00:09:11;;;;;;;37.70;21.37;;;10.80;99.90;;;;;;5052036;28;20410;-80
2021/12/16 00:33:58;;;;;;;39.40;20.23;;;10.30;99.90;;;;;;5071892;28;20456;-80
2021/12/16 00:35:54;;;;;;;42.47;21.27;;;10.30;99.90;;;;;;5068652;28;20468;-80
2021/12/16 00:38:20;;;;;;;36.57;21.70;;;10.30;99.90;;;;;;5070732;28;20428;-80
2021/12/16 00:40:45;;;;;;;36.47;21.90;;;10.30;99.90;;;;;;5070222;28;20209;-80
2021/12/16 00:43:23;;;;;;;36.27;22.00;;;10.20;99.90;;;;;;5070608;28;20207;-80
2021/12/16 00:48:38;;;;;;;36.13;20.50;;;10.40;99.90;;;;;;5071965;28;20419;-80
2021/12/16 00:56:17;;;;;;;40.30;19.80;;;10.30;99.90;;;;;;5072215;28;20448;-80
2021/12/16 00:58:55;;;;;;;47.90;24.93;;;10.40;99.90;;;;;;5070561;28;20417;-80
2021/12/16 01:09:12;;;;;;;43.20;22.40;;;10.30;99.90;;;;;;5078450;28;20463;-80
2021/12/16 01:51:22;;;;;;;39.70;22.70;;;10.50;99.90;;;;;;5078101;28;20448;-80
2021/12/16 01:54:30;;;;;;;40.33;24.00;;;10.60;99.90;;;;;;5075876;28;20448;-80
2021/12/16 01:56:59;;;;;;;50.53;23.80;;;10.60;99.90;;;;;;5077121;28;20425;-80
2021/12/16 01:59:33;;;;;;;50.07;26.00;;;10.50;99.90;;;;;;5075993;28;20919;-80
2021/12/16 02:02:11;;;;;;;43.17;23.70;;;10.50;99.90;;;;;;5075398;28;20433;-80
2021/12/16 02:04:53;;;;;;;47.50;24.07;;;10.50;99.90;;;;;;5075917;28;20957;-80
2021/12/16 02:10:04;;;;;;;45.27;23.10;;;10.70;99.90;;;;;;5076588;28;20458;-80
2021/12/16 02:12:44;;;;;;;42.30;23.63;;;10.70;99.90;;;;;;5074972;28;20461;-80
2021/12/16 02:36:44;;;;;;;46.93;22.20;;;10.80;99.90;;;;;;5075395;28;20944;-80
2021/12/16 02:39:19;;;;;;;47.30;21.03;;;10.90;99.90;;;;;;5073115;28;20695;-80
2021/12/16 02:41:47;;;;;;;42.83;22.87;;;10.80;99.90;;;;;;5073283;28;20540;-80
2021/12/16 02:44:22;;;;;;;43.50;23.10;;;10.80;99.90;;;;;;5073524;28;20967;-80
2021/12/16 02:49:44;;;;;;;51.17;24.13;;;10.80;99.90;;;;;;5074657;28;20424;-80
2021/12/16 02:52:15;;;;;;;43.03;21.53;;;10.70;99.90;;;;;;5072569;28;20465;-80
2021/12/16 02:54:42;;;;;;;45.80;25.27;;;10.80;99.90;;;;;;5072769;28;20440;-80
2021/12/16 02:57:09;;;;;;;44.23;24.70;;;10.80;99.90;;;;;;5073049;28;20416;-80
2021/12/16 02:59:35;;;;;;;43.50;23.97;;;10.80;99.90;;;;;;5072442;28;20421;-80
2021/12/16 03:02:09;;;;;;;48.53;23.03;;;10.90;99.90;;;;;;5072515;28;20452;-80
2021/12/16 03:04:36;;;;;;;46.00;23.90;;;10.90;99.90;;;;;;5072822;28;20940;-80
2021/12/16 03:07:03;;;;;;;39.10;22.93;;;10.80;99.90;;;;;;5072240;28;20790;-80
2021/12/16 03:15:00;;;;;;;41.13;23.90;;;10.90;99.90;;;;;;5073572;28;20406;-80
2021/12/16 03:20:19;;;;;;;47.80;25.20;;;10.80;99.90;;;;;;5073426;28;20921;-80
2021/12/16 03:25:39;;;;;;;50.17;22.50;;;10.90;99.90;;;;;;5073365;28;20910;-80
2021/12/16 03:33:49;;;;;;;42.60;24.80;;;10.80;99.90;;;;;;5073143;28;20510;-80
2021/12/16 03:36:27;;;;;;;47.03;24.20;;;10.80;99.90;;;;;;5071718;28;20429;-80
2021/12/16 03:39:09;;;;;;;45.43;23.60;;;10.70;99.90;;;;;;5071562;28;20559;-80
2021/12/16 03:41:41;;;;;;;44.87;23.03;;;10.70;99.90;;;;;;5063599;22;20534;-84
2021/12/16 03:44:14;;;;;;;47.13;25.60;;;10.70;99.90;;;;;;5013357;28;20460;-84
2021/12/16 03:46:52;;;;;;;47.63;25.70;;;10.70;99.90;;;;;;5013476;28;20423;-84
2021/12/16 03:49:25;;;;;;;40.93;24.50;;;10.60;99.90;;;;;;5012033;28;20430;-84
2021/12/16 03:52:06;;;;;;;47.70;26.10;;;10.70;99.90;;;;;;5011855;28;21017;-84
2021/12/16 03:54:40;;;;;;;42.23;25.10;;;10.60;99.90;;;;;;5013115;28;20404;-83
2021/12/16 03:57:10;;;;;;;44.27;22.93;;;10.60;99.90;;;;;;5011859;28;20419;-84
2021/12/16 03:59:38;;;;;;;39.47;22.90;;;10.50;99.90;;;;;;5012909;28;20416;-84
2021/12/16 04:02:12;;;;;;;48.00;23.57;;;10.50;99.90;;;;;;5012441;28;20443;-84
2021/12/16 04:04:48;;;;;;;38.93;21.53;;;10.40;99.90;;;;;;5011677;28;20466;-84
2021/12/16 04:07:14;;;;;;;49.03;26.30;;;10.40;99.90;;;;;;5011702;28;20419;-84
2021/12/16 04:09:45;;;;;;;43.20;24.50;;;10.20;99.90;;;;;;5011486;28;20518;-83
2021/12/16 04:12:21;;;;;;;41.77;23.43;;;10.20;99.90;;;;;;5011513;28;20460;-83
2021/12/16 04:14:50;;;;;;;47.40;25.50;;;10.20;99.90;;;;;;5011158;28;20478;-83
2021/12/16 04:17:24;;;;;;;45.13;25.30;;;10.20;99.90;;;;;;5011108;28;20506;-83
2021/12/16 04:19:50;;;;;;;44.77;24.10;;;10.20;99.90;;;;;;5011184;28;20450;-83
2021/12/16 04:22:28;;;;;;;42.33;24.63;;;10.20;99.90;;;;;;5011235;28;20438;-83
2021/12/16 04:25:01;;;;;;;42.83;24.47;;;10.10;99.90;;;;;;5011550;28;20501;-83
2021/12/16 04:27:29;;;;;;;45.00;25.23;;;10.20;99.90;;;;;;5011453;28;20463;-83
2021/12/16 04:29:58;;;;;;;40.60;19.87;;;10.30;99.90;;;;;;5011227;28;20951;-83
2021/12/16 04:32:26;;;;;;;38.53;22.90;;;10.30;99.90;;;;;;5011091;28;20488;-84
2021/12/16 04:34:52;;;;;;;42.63;23.50;;;10.40;99.90;;;;;;5010847;28;20424;-83
2021/12/16 04:37:18;;;;;;;39.70;23.20;;;10.40;99.90;;;;;;5011194;28;20420;-83
2021/12/16 04:39:46;;;;;;;42.37;22.27;;;10.40;99.90;;;;;;5010952;28;20420;-84
2021/12/16 04:42:13;;;;;;;37.67;22.50;;;10.40;99.90;;;;;;5011139;28;20222;-83
2021/12/16 04:44:43;;;;;;;40.80;20.90;;;10.40;99.90;;;;;;5011216;28;20458;-83
2021/12/16 04:47:12;;;;;;;47.77;22.77;;;10.30;99.90;;;;;;5011063;28;20432;-83
2021/12/16 04:49:39;;;;;;;37.20;21.20;;;10.20;99.90;;;;;;5010900;28;20423;-83
2021/12/16 04:52:11;;;;;;;46.13;22.00;;;10.10;99.90;;;;;;5010733;28;20460;-83
2021/12/16 04:54:37;;;;;;;38.90;21.57;;;10.10;99.90;;;;;;5011098;28;20790;-84
2021/12/16 04:57:08;;;;;;;36.87;21.80;;;10.00;99.90;;;;;;5011152;28;20442;-84
2021/12/16 04:59:40;;;;;;;42.90;21.03;;;9.90;99.90;;;;;;5010812;28;20417;-84
2021/12/16 05:02:15;;;;;;;36.57;21.10;;;9.80;99.90;;;;;;5011194;28;20478;-84
2021/12/16 05:04:42;;;;;;;41.23;21.13;;;9.70;99.90;;;;;;5014869;28;20426;-84
2021/12/16 05:07:10;;;;;;;37.37;19.60;;;9.70;99.90;;;;;;5011410;28;20431;-84
2021/12/16 05:12:17;;;;;;;34.97;19.47;;;9.70;99.90;;;;;;5012978;28;20478;-84
2021/12/16 05:14:47;;;;;;;39.80;22.67;;;9.70;99.90;;;;;;5012434;28;20424;-84
2021/12/16 05:17:26;;;;;;;36.10;21.63;;;9.60;99.90;;;;;;5015341;28;20420;-84
2021/12/16 05:19:53;;;;;;;38.10;22.03;;;9.60;99.90;;;;;;5014564;28;20430;-84
2021/12/16 05:25:17;;;;;;;39.93;20.97;;;9.50;99.90;;;;;;5016322;28;20403;-84
2021/12/16 05:27:43;;;;;;;38.07;22.13;;;9.40;99.90;;;;;;5016073;28;20489;-82
2021/12/16 05:30:14;;;;;;;47.03;22.90;;;9.30;99.90;;;;;;5014498;28;20475;-85
2021/12/16 05:32:45;;;;;;;40.67;21.10;;;9.20;99.90;;;;;;5016129;28;20185;-83
2021/12/16 05:35:19;;;;;;;40.80;23.87;;;9.20;99.90;;;;;;5015712;28;20789;-84
2021/12/16 05:37:45;;;;;;;40.80;22.23;;;9.20;99.90;;;;;;5016070;28;20455;-84
2021/12/16 05:40:17;;;;;;;35.60;21.57;;;9.20;99.90;;;;;;5014053;28;20444;-83
2021/12/16 05:42:43;;;;;;;44.13;23.60;;;9.20;99.90;;;;;;5014426;28;20423;-82
2021/12/16 05:45:12;;;;;;;38.93;22.10;;;9.20;99.90;;;;;;5014454;28;20420;-81
2021/12/16 05:47:40;;;;;;;41.43;23.00;;;9.10;99.90;;;;;;5015548;28;20443;-83
2021/12/16 05:50:10;;;;;;;39.10;20.80;;;9.10;99.90;;;;;;5015171;28;20942;-83
2021/12/16 05:52:39;;;;;;;31.83;19.87;;;9.10;99.90;;;;;;5014097;28;20523;-83
2021/12/16 05:55:10;;;;;;;34.73;20.23;;;9.00;99.90;;;;;;5015465;28;20840;-82
2021/12/16 05:57:37;;;;;;;38.63;19.90;;;9.00;99.90;;;;;;5014141;28;20423;-82
2021/12/16 06:00:13;;;;;;;39.07;21.57;;;8.90;99.90;;;;;;5014957;28;20439;-83
2021/12/16 06:02:41;;;;;;;38.53;20.07;;;8.80;99.90;;;;;;5013994;28;20845;-83
2021/12/16 06:05:10;;;;;;;38.00;20.50;;;8.60;99.90;;;;;;5013873;28;20521;-83
2021/12/16 06:07:36;;;;;;;38.73;20.07;;;8.60;99.90;;;;;;5013732;28;20485;-83
2021/12/16 06:10:04;;;;;;;36.93;19.93;;;8.50;99.90;;;;;;5014726;28;20474;-83
2021/12/16 06:12:30;;;;;;;32.00;18.33;;;8.40;99.90;;;;;;5013504;28;20209;-83
2021/12/16 06:15:20;;;;;;;34.47;19.70;;;8.40;99.90;;;;;;5013700;28;20421;-83
2021/12/16 06:28:30;;;;;;;38.70;17.17;;;8.10;99.90;;;;;;5014789;28;20403;-83
2021/12/16 06:30:56;;;;;;;33.73;20.37;;;8.10;99.90;;;;;;5013283;28;20439;-84
2021/12/16 06:33:25;;;;;;;30.67;17.90;;;8.00;99.90;;;;;;5014641;28;20462;-83
2021/12/16 06:35:56;;;;;;;32.30;17.40;;;7.90;99.90;;;;;;5013319;28;20215;-83
2021/12/16 06:38:22;;;;;;;29.83;17.00;;;7.90;99.90;;;;;;5013586;28;20466;-83
2021/12/16 06:40:49;;;;;;;33.13;16.60;;;8.00;99.90;;;;;;5012802;28;20872;-84
2021/12/16 06:43:17;;;;;;;29.83;18.43;;;8.00;99.90;;;;;;5013231;28;20949;-84
2021/12/16 06:45:49;;;;;;;35.47;18.50;;;8.00;99.90;;;;;;5013031;28;20836;-83
2021/12/16 06:48:20;;;;;;;29.90;17.80;;;8.00;99.90;;;;;;5013285;28;20463;-83
2021/12/16 06:50:57;;;;;;;31.53;18.53;;;8.10;99.90;;;;;;5012706;28;20479;-83
2021/12/16 06:53:29;;;;;;;31.80;15.97;;;8.10;99.90;;;;;;5013151;28;20463;-83
2021/12/16 06:56:11;;;;;;;30.73;16.67;;;8.10;99.90;;;;;;5012945;28;20463;-83
2021/12/16 06:58:44;;;;;;;31.80;17.97;;;8.10;99.90;;;;;;5012969;28;20947;-84
2021/12/16 07:01:17;;;;;;;26.43;16.57;;;8.10;99.90;;;;;;5013773;28;20785;-83
2021/12/16 07:03:47;;;;;;;33.60;17.10;;;8.10;99.90;;;;;;5014269;28;20499;-84
2021/12/16 07:06:28;;;;;;;33.00;16.77;;;8.10;99.90;;;;;;5016054;28;20423;-83
2021/12/16 07:09:13;;;;;;;34.10;18.30;;;8.00;99.90;;;;;;5016883;28;20408;-84
2021/12/16 07:11:41;;;;;;;33.60;18.87;;;8.00;99.90;;;;;;5014597;28;20448;-84
2021/12/16 07:14:13;;;;;;;35.40;19.37;;;8.00;99.90;;;;;;5015395;28;20420;-83
2021/12/16 07:16:40;;;;;;;37.83;19.97;;;8.00;99.90;;;;;;5013792;28;20614;-85
2021/12/16 07:19:06;;;;;;;34.90;19.73;;;8.00;99.90;;;;;;5013134;28;20416;-84
2021/12/16 07:21:37;;;;;;;38.47;20.57;;;8.00;99.90;;;;;;5013212;28;20436;-83
2021/12/16 07:24:05;;;;;;;36.67;18.33;;;8.00;99.90;;;;;;5014513;28;20158;-83
2021/12/16 07:26:30;;;;;;;41.33;21.87;;;8.00;99.90;;;;;;5013124;28;20443;-84
2021/12/16 07:28:56;;;;;;;35.40;19.10;;;8.00;99.90;;;;;;5013534;28;20416;-83
2021/12/16 07:31:21;;;;;;;36.07;22.23;;;8.00;99.90;;;;;;5014008;28;20629;-83
2021/12/16 07:33:47;;;;;;;40.93;21.33;;;8.00;99.90;;;;;;5029304;28;20271;-83
2021/12/16 07:36:18;;;;;;;40.37;22.03;;;8.00;99.90;;;;;;5014537;28;20556;-84
2021/12/16 07:38:44;;;;;;;45.40;21.20;;;7.90;99.90;;;;;;5012945;28;20656;-83
2021/12/16 07:41:10;;;;;;;34.03;19.80;;;8.00;99.90;;;;;;5013303;28;20472;-84
2021/12/16 07:43:54;;;;;;;38.93;20.47;;;8.00;99.90;;;;;;5013956;28;20473;-83
2021/12/16 07:46:21;;;;;;;31.30;18.77;;;8.10;99.90;;;;;;5012663;28;20177;-83
2021/12/16 07:48:46;;;;;;;41.03;21.30;;;8.20;99.90;;;;;;5012724;28;20466;-83
2021/12/16 07:51:12;;;;;;;35.67;22.10;;;8.20;99.90;;;;;;5013701;28;20531;-83
2021/12/16 07:53:38;;;;;;;37.70;21.87;;;8.20;99.90;;;;;;5013681;28;20201;-83
2021/12/16 07:56:05;;;;;;;36.93;22.37;;;8.20;99.90;;;;;;5012662;28;20183;-83
2021/12/16 07:58:31;;;;;;;39.90;20.80;;;8.20;99.90;;;;;;5029454;28;20435;-83
2021/12/16 08:00:58;;;;;;;38.20;21.47;;;8.20;99.90;;;;;;5011774;28;20475;-82
2021/12/16 08:03:34;;;;;;;31.77;19.90;;;8.30;99.90;;;;;;5013325;28;20420;-83
2021/12/16 08:06:05;;;;;;;31.20;17.67;;;8.30;99.90;;;;;;5011916;28;20411;-82
2021/12/16 08:08:30;;;;;;;36.40;23.37;;;8.30;99.90;;;;;;5012044;28;20413;-83
2021/12/16 08:10:56;;;;;;;30.37;20.03;;;8.40;99.90;;;;;;5011305;28;21013;-83
2021/12/16 08:13:22;;;;;;;40.07;22.73;;;8.40;99.90;;;;;;5012947;28;20291;-84
2021/12/16 08:15:48;;;;;;;40.87;22.23;;;8.40;99.90;;;;;;5028135;28;20190;-82
2021/12/16 08:18:13;;;;;;;36.77;20.13;;;8.50;99.90;;;;;;5011663;28;20209;-83
2021/12/16 08:20:40;;;;;;;32.13;19.80;;;8.50;99.90;;;;;;5011506;28;20676;-83
2021/12/16 08:23:06;;;;;;;34.43;20.30;;;8.50;99.90;;;;;;5012701;28;20181;-83
2021/12/16 08:25:33;;;;;;;34.80;21.07;;;8.50;99.90;;;;;;5011536;28;20424;-83
2021/12/16 08:28:03;;;;;;;37.57;21.03;;;8.50;99.90;;;;;;5011338;28;20432;-83
2021/12/16 08:30:30;;;;;;;36.30;21.33;;;8.60;99.90;;;;;;5012248;28;20439;-83
2021/12/16 08:32:57;;;;;;;38.83;22.90;;;8.80;99.90;;;;;;5012338;28;20454;-83
2021/12/16 08:35:23;;;;;;;40.17;25.27;;;8.90;99.90;;;;;;5011446;28;20792;-83
2021/12/16 08:37:49;;;;;;;43.13;24.80;;;9.10;99.90;;;;;;5011306;28;20419;-83
2021/12/16 08:40:21;;;;;;;47.30;24.60;;;9.30;99.90;;;;;;5027495;28;20443;-84
2021/12/16 08:42:48;;;;;;;39.33;23.37;;;9.30;99.90;;;;;;5011267;28;20558;-82
2021/12/16 08:45:19;;;;;;;41.30;23.07;;;9.50;99.90;;;;;;5012513;28;20431;-83
2021/12/16 08:47:45;;;;;;;42.93;24.77;;;9.60;99.90;;;;;;5011144;28;20416;-82
2021/12/16 08:50:15;;;;;;;40.23;24.70;;;9.60;99.90;;;;;;5014928;28;20443;-84
2021/12/16 08:52:41;;;;;;;40.80;24.20;;;9.70;99.90;;;;;;5015325;28;20470;-83
2021/12/16 08:55:08;;;;;;;45.57;23.73;;;9.80;99.90;;;;;;5015335;28;20436;-83
2021/12/16 08:57:34;;;;;;;39.20;23.63;;;9.90;99.90;;;;;;5015817;28;20246;-83
2021/12/16 09:00:00;;;;;;;46.33;27.77;;;10.00;99.90;;;;;;5016569;28;20414;-83
2021/12/16 09:02:26;;;;;;;45.77;25.60;;;10.10;99.90;;;;;;5014865;28;20431;-83
2021/12/16 09:04:51;;;;;;;40.63;23.83;;;10.20;99.90;;;;;;5014878;28;20462;-83
2021/12/16 09:07:17;;;;;;;39.83;22.03;;;10.20;99.90;;;;;;5014835;28;20196;-83
2021/12/16 09:09:45;;;;;;;41.00;23.40;;;10.30;99.90;;;;;;5014466;28;20191;-83
2021/12/16 09:12:37;;;;;;;37.43;21.10;;;10.40;99.90;;;;;;5014792;28;20468;-83
2021/12/16 09:15:07;;;;;;;42.43;22.90;;;10.50;99.90;;;;;;5015659;28;20839;-83
2021/12/16 09:17:33;;;;;;;43.40;24.10;;;10.50;99.90;;;;;;5014839;28;20780;-83
2021/12/16 09:19:58;;;;;;;45.67;26.07;;;10.60;99.90;;;;;;5007714;28;20424;-83
2021/12/16 09:22:26;;;;;;;41.93;23.53;;;10.70;99.90;;;;;;5002095;28;20188;-82
2021/12/16 09:24:56;;;;;;;46.93;25.03;;;10.70;99.90;;;;;;5014443;28;20278;-82
2021/12/16 09:27:22;;;;;;;40.00;23.30;;;10.80;99.90;;;;;;5013546;28;20455;-82
2021/12/16 09:29:48;;;;;;;48.20;23.90;;;10.90;99.90;;;;;;5013210;28;20854;-81
2021/12/16 09:32:15;;;;;;;41.63;24.70;;;10.90;99.90;;;;;;5013174;28;20676;-82
2021/12/16 09:34:43;;;;;;;43.90;24.10;;;10.90;99.90;;;;;;5014169;28;20416;-83
2021/12/16 09:37:08;;;;;;;40.83;25.20;;;11.00;99.90;;;;;;5030631;28;20416;-83
2021/12/16 09:39:36;;;;;;;38.10;23.90;;;11.00;99.90;;;;;;5030651;28;20434;-82
2021/12/16 09:42:03;;;;;;;38.87;22.63;;;11.10;99.90;;;;;;5014809;28;20260;-83
2021/12/16 09:44:29;;;;;;;41.83;24.20;;;11.10;99.90;;;;;;5080118;22;20697;-82
2021/12/16 09:47:01;;;;;;;34.90;22.10;;;11.10;99.90;;;;;;5007558;28;20812;-81
2021/12/16 09:49:27;;;;;;;38.83;22.10;;;11.20;99.90;;;;;;4989627;28;20421;-80
2021/12/16 09:51:57;;;;;;;36.33;22.47;;;11.20;99.90;;;;;;4978766;28;20421;-81
2021/12/16 09:54:27;;;;;;;40.43;23.70;;;11.20;99.90;;;;;;4983019;28;20441;-82
2021/12/16 09:56:54;;;;;;;44.90;25.40;;;11.20;99.90;;;;;;4981216;28;20416;-83
2021/12/16 09:59:22;;;;;;;39.70;24.50;;;11.30;99.90;;;;;;4997923;28;20990;-81
2021/12/16 10:01:51;;;;;;;42.20;24.00;;;11.30;99.90;;;;;;4999988;28;20838;-81
2021/12/16 10:04:21;;;;;;;43.37;25.80;;;11.40;99.90;;;;;;5000095;28;20448;-82
2021/12/16 10:06:49;;;;;;;45.13;26.00;;;11.40;99.90;;;;;;4991059;28;20428;-82
2021/12/16 10:09:15;;;;;;;39.90;24.53;;;11.40;99.90;;;;;;5021803;28;20411;-82
2021/12/16 10:11:44;;;;;;;38.47;23.37;;;11.50;99.90;;;;;;5038073;28;20415;-82
2021/12/16 10:19:24;;;;;;;37.37;21.20;;;11.60;99.90;;;;;;5014729;28;20435;-82
2021/12/16 10:21:50;;;;;;;39.37;20.83;;;11.60;99.90;;;;;;5010830;28;20440;-81
2021/12/16 10:24:34;;;;;;;40.70;24.20;;;11.60;99.90;;;;;;5014620;28;20445;-81
2021/12/16 10:27:15;;;;;;;43.90;24.20;;;11.60;99.90;;;;;;5014687;28;20404;-81
2021/12/16 10:29:52;;;;;;;37.57;23.80;;;11.60;99.90;;;;;;5014610;28;20821;-80
2021/12/16 10:32:35;;;;;;;41.23;24.27;;;11.60;99.90;;;;;;5014087;28;20455;-81
2021/12/16 10:35:14;;;;;;;43.87;23.97;;;11.70;99.90;;;;;;5014192;28;20516;-80
2021/12/16 10:37:45;;;;;;;41.17;25.80;;;11.80;99.90;;;;;;5014647;28;20832;-80
2021/12/16 10:40:46;;;;;;;46.10;26.47;;;11.90;99.90;;;;;;5014185;28;20400;-81
2021/12/16 10:43:22;;;;;;;47.63;27.17;;;11.90;99.90;;;;;;5003438;28;20432;-80
2021/12/16 10:45:52;;;;;;;40.80;26.80;;;12.00;99.90;;;;;;5014022;28;20887;-81
2021/12/16 10:48:42;;;;;;;45.00;26.33;;;12.00;99.90;;;;;;5014225;28;20413;-81
2021/12/16 10:51:29;;;;;;;45.23;25.13;;;12.00;99.90;;;;;;5013731;28;20420;-81
2021/12/16 10:53:59;;;;;;;46.27;26.70;;;12.10;99.90;;;;;;4996255;28;20532;-81
2021/12/16 10:56:48;;;;;;;46.17;26.70;;;12.10;99.90;;;;;;5013807;28;20469;-81
2021/12/16 10:59:17;;;;;;;48.70;27.30;;;12.00;99.90;;;;;;5013569;28;20411;-80
2021/12/16 11:02:21;;;;;;;48.43;27.50;;;12.00;99.90;;;;;;4996144;28;20424;-81
2021/12/16 11:04:55;;;;;;;42.33;25.50;;;11.90;99.90;;;;;;5013668;28;20439;-81
2021/12/16 11:07:31;;;;;;;42.87;26.43;;;12.00;99.90;;;;;;5013645;28;20465;-81
2021/12/16 11:10:07;;;;;;;52.30;24.90;;;11.90;99.90;;;;;;5013570;28;20811;-81
2021/12/16 11:12:46;;;;;;;45.23;25.23;;;11.90;99.90;;;;;;5012281;28;20459;-81
2021/12/16 11:15:39;;;;;;;49.40;25.67;;;11.90;99.90;;;;;;5013383;28;20440;-81
2021/12/16 11:18:21;;;;;;;49.20;26.17;;;12.00;99.90;;;;;;5013463;28;20419;-80
2021/12/16 11:21:06;;;;;;;41.10;24.83;;;11.90;99.90;;;;;;5013284;28;20401;-81
2021/12/16 11:23:37;;;;;;;50.63;28.10;;;12.00;99.90;;;;;;5013332;28;20470;-81
2021/12/16 11:26:09;;;;;;;53.80;27.40;;;12.10;99.90;;;;;;4995506;28;20440;-81
2021/12/16 11:28:41;;;;;;;43.93;24.60;;;12.10;99.90;;;;;;5018470;28;20443;-80
2021/12/16 11:31:11;;;;;;;39.57;25.00;;;12.10;99.90;;;;;;5018818;28;20396;-81
2021/12/16 11:33:44;;;;;;;44.00;26.50;;;12.10;99.90;;;;;;5002313;28;20514;-81
2021/12/16 11:36:35;;;;;;;41.07;23.73;;;12.10;99.90;;;;;;4997494;28;20498;-81
2021/12/16 11:39:11;;;;;;;47.53;26.10;;;12.10;99.90;;;;;;5008089;28;20505;-80
2021/12/16 11:41:41;;;;;;;48.43;27.43;;;12.10;99.90;;;;;;5007545;28;20419;-81
2021/12/16 11:44:19;;;;;;;41.07;25.40;;;12.10;99.90;;;;;;5003032;28;20890;-81
2021/12/16 11:46:48;;;;;;;46.23;23.30;;;12.10;99.90;;;;;;5009994;28;20794;-82
2021/12/16 11:49:28;;;;;;;53.20;29.33;;;12.10;99.90;;;;;;5011806;28;20433;-82
2021/12/16 11:52:01;;;;;;;42.53;26.30;;;12.10;99.90;;;;;;5008654;28;20816;-81
2021/12/16 11:54:36;;;;;;;41.87;25.23;;;12.10;99.90;;;;;;5006974;28;20435;-81
2021/12/16 11:57:24;;;;;;;45.77;27.27;;;12.10;99.90;;;;;;5006728;28;20415;-83
2021/12/16 12:00:45;;;;;;;45.47;26.53;;;12.10;99.90;;;;;;5011566;28;20424;-83
2021/12/16 12:03:38;;;;;;;48.47;26.80;;;12.20;99.90;;;;;;5010434;28;20467;-83
2021/12/16 12:06:18;;;;;;;45.63;25.57;;;12.30;99.90;;;;;;5019276;28;20447;-83
2021/12/16 12:08:47;;;;;;;48.83;30.10;;;12.30;99.90;;;;;;5014064;28;20427;-82
2021/12/16 12:11:29;;;;;;;53.90;30.67;;;12.40;99.90;;;;;;4996178;28;20434;-82
2021/12/16 12:14:06;;;;;;;51.07;28.47;;;12.50;99.90;;;;;;5013729;28;20459;-81
2021/12/16 12:16:41;;;;;;;41.73;26.00;;;12.50;99.90;;;;;;4995946;28;20510;-81
2021/12/16 12:19:20;;;;;;;61.17;29.97;;;12.60;99.90;;;;;;5013672;28;20419;-81
2021/12/16 12:22:00;;;;;;;48.40;26.87;;;12.60;99.90;;;;;;5013940;28;20399;-81
2021/12/16 12:24:38;;;;;;;39.10;24.53;;;12.60;99.90;;;;;;5013118;28;20442;-82
2021/12/16 12:27:09;;;;;;;52.70;28.20;;;12.60;99.90;;;;;;4996023;28;20419;-82
2021/12/16 12:29:37;;;;;;;50.50;29.90;;;12.60;99.90;;;;;;5013243;28;20401;-81
2021/12/16 12:32:07;;;;;;;48.87;25.53;;;12.60;99.90;;;;;;5013605;28;20427;-81
2021/12/16 12:34:36;;;;;;;46.47;26.50;;;12.60;99.90;;;;;;5013611;28;20528;-80
2021/12/16 12:37:05;;;;;;;48.07;25.93;;;12.60;99.90;;;;;;5014125;28;20423;-79
2021/12/16 12:39:46;;;;;;;47.00;28.20;;;12.70;99.90;;;;;;5014011;28;20424;-78
2021/12/16 12:42:13;;;;;;;54.57;26.87;;;12.70;99.90;;;;;;5013369;28;20423;-80
2021/12/16 12:44:40;;;;;;;46.03;28.07;;;12.70;99.90;;;;;;5012860;28;20455;-79
2021/12/16 12:47:10;;;;;;;55.37;28.60;;;12.80;99.90;;;;;;5012582;28;20487;-79
2021/12/16 12:49:36;;;;;;;46.87;26.97;;;12.80;99.90;;;;;;5012270;28;20419;-79
2021/12/16 12:52:10;;;;;;;50.87;27.73;;;12.90;99.90;;;;;;4995265;28;20527;-79
2021/12/16 12:54:38;;;;;;;47.03;28.30;;;12.90;99.90;;;;;;5004797;28;20252;-79
2021/12/16 12:57:25;;;;;;;48.03;29.27;;;12.90;99.90;;;;;;5012666;28;20466;-79
2021/12/16 12:59:52;;;;;;;48.03;26.67;;;12.90;99.90;;;;;;5008362;28;20416;-83
2021/12/16 13:02:35;;;;;;;47.37;26.70;;;12.90;99.90;;;;;;4998695;28;20428;-81
2021/12/16 13:05:16;;;;;;;47.87;27.00;;;12.90;99.90;;;;;;5006680;28;20435;-81
2021/12/16 13:07:52;;;;;;;51.40;29.90;;;12.90;99.90;;;;;;5011288;28;20467;-81
2021/12/16 13:10:27;;;;;;;49.87;29.43;;;12.90;99.90;;;;;;5010633;28;20412;-80
2021/12/16 13:13:15;;;;;;;50.57;28.87;;;12.90;99.90;;;;;;5010299;28;20506;-81
2021/12/16 13:15:52;;;;;;;50.47;29.83;;;12.90;99.90;;;;;;5010588;28;20443;-80
2021/12/16 13:24:04;;;;;;;54.43;30.13;;;12.80;99.90;;;;;;5011296;28;20941;-81
2021/12/16 13:26:46;;;;;;;49.63;29.77;;;12.80;99.90;;;;;;5013427;28;20503;-81
2021/12/16 13:32:26;;;;;;;56.03;30.30;;;12.80;99.90;;;;;;5002854;28;20446;-81
2021/12/16 13:35:11;;;;;;;51.13;28.90;;;12.80;99.90;;;;;;5011262;28;20813;-83
2021/12/16 13:37:45;;;;;;;56.30;30.90;;;12.70;99.90;;;;;;5014815;28;20411;-80
2021/12/16 13:40:36;;;;;;;65.80;33.10;;;12.70;99.90;;;;;;5016306;28;20396;-81
2021/12/16 13:43:15;;;;;;;50.00;28.57;;;12.70;99.90;;;;;;5015061;28;20404;-81
2021/12/16 13:46:02;;;;;;;55.53;30.70;;;12.70;99.90;;;;;;5014302;28;20485;-81
2021/12/16 14:07:58;;;;;;;56.03;30.27;;;12.60;99.90;;;;;;4994780;28;20416;-83
2021/12/16 14:10:51;;;;;;;54.20;29.63;;;12.50;99.90;;;;;;4976531;28;20788;-82
2021/12/16 14:42:21;;;;;;;68.67;32.17;;;12.00;99.90;;;;;;4950288;28;20475;-83
2021/12/16 14:50:17;;;;;;;60.53;31.97;;;11.90;99.90;;;;;;4993348;28;20448;-83
2021/12/16 14:52:42;;;;;;;66.00;32.00;;;11.90;99.90;;;;;;4993526;28;20468;-82
2021/12/16 14:55:11;;;;;;;53.90;30.67;;;11.80;99.90;;;;;;4993376;28;20564;-80
2021/12/16 14:57:41;;;;;;;59.27;32.30;;;11.80;99.90;;;;;;4993637;28;20247;-81
2021/12/16 15:00:29;;;;;;;59.60;29.97;;;11.80;99.90;;;;;;4975741;28;20420;-81
2021/12/16 15:03:09;;;;;;;55.13;29.97;;;11.70;99.90;;;;;;4993036;28;20417;-81
2021/12/16 15:05:39;;;;;;;63.63;31.43;;;11.70;99.90;;;;;;4993167;28;20447;-83
2021/12/16 15:08:34;;;;;;;60.23;32.40;;;11.70;99.90;;;;;;4993488;28;20402;-83
2021/12/16 15:11:01;;;;;;;62.17;31.53;;;11.70;99.90;;;;;;4989476;28;20436;-84
2021/12/16 15:13:37;;;;;;;65.93;35.07;;;11.60;99.90;;;;;;5018067;28;20470;-84
2021/12/16 15:36:46;;;;;;;59.37;31.43;;;11.20;99.90;;;;;;5017177;28;20486;-85
2021/12/16 15:39:43;;;;;;;69.90;30.87;;;11.20;99.90;;;;;;5016241;28;20447;-81
2021/12/16 15:44:59;;;;;;;65.83;32.90;;;11.00;99.90;;;;;;5016692;28;20471;-80
2021/12/16 15:47:26;;;;;;;59.20;30.80;;;11.00;99.90;;;;;;4999761;28;20432;-83
2021/12/16 15:49:52;;;;;;;64.50;31.47;;;10.90;99.90;;;;;;4997714;28;20419;-82
2021/12/16 15:52:18;;;;;;;60.50;30.53;;;10.90;99.90;;;;;;5014757;28;20782;-82
2021/12/16 15:54:51;;;;;;;59.87;32.03;;;10.90;99.90;;;;;;5015053;28;20861;-82
2021/12/16 15:57:23;;;;;;;58.43;29.80;;;10.90;99.90;;;;;;5014264;28;20435;-82
2021/12/16 15:59:50;;;;;;;69.10;31.00;;;10.90;99.90;;;;;;5014608;28;20463;-82
2021/12/16 16:02:18;;;;;;;53.73;29.33;;;10.90;99.90;;;;;;5012095;28;20930;-81
2021/12/16 16:04:43;;;;;;;63.53;33.23;;;10.90;99.90;;;;;;5011365;28;20502;-79
2021/12/16 16:07:12;;;;;;;68.37;32.60;;;10.90;99.90;;;;;;5011492;28;20419;-81
2021/12/16 16:09:47;;;;;;;64.93;32.63;;;10.90;99.90;;;;;;4993679;28;20196;-81
2021/12/16 16:12:17;;;;;;;60.10;32.57;;;10.90;99.90;;;;;;5011354;28;20415;-80
2021/12/16 16:14:49;;;;;;;60.63;31.40;;;10.90;99.90;;;;;;5011565;28;20436;-80
2021/12/16 16:17:21;;;;;;;61.93;30.57;;;11.00;99.90;;;;;;5011119;28;20443;-81
2021/12/16 16:19:49;;;;;;;58.17;31.13;;;11.00;99.90;;;;;;5011462;28;20411;-81
2021/12/16 16:22:16;;;;;;;71.93;34.20;;;11.00;99.90;;;;;;5011262;28;20416;-81
2021/12/16 16:24:45;;;;;;;59.80;30.53;;;11.00;99.90;;;;;;5011082;28;20470;-79
2021/12/16 16:27:24;;;;;;;67.60;31.57;;;10.90;99.90;;;;;;5011393;28;20430;-80
2021/12/16 16:29:53;;;;;;;54.17;29.13;;;10.90;99.90;;;;;;5011112;28;20427;-79
2021/12/16 16:32:19;;;;;;;57.03;29.00;;;10.90;99.90;;;;;;5010839;28;20507;-80
2021/12/16 16:34:48;;;;;;;64.67;32.50;;;10.90;99.90;;;;;;5009648;28;20788;-80
2021/12/16 16:37:28;;;;;;;56.30;29.10;;;10.90;99.90;;;;;;5011241;28;20412;-80
2021/12/16 16:39:58;;;;;;;59.57;29.97;;;10.90;99.90;;;;;;4994007;28;20521;-80
2021/12/16 16:42:35;;;;;;;50.57;27.70;;;10.90;99.90;;;;;;5013596;28;20470;-81
2021/12/16 16:45:03;;;;;;;55.73;30.00;;;10.90;99.90;;;;;;5012420;28;20494;-80
2021/12/16 16:47:36;;;;;;;58.33;30.03;;;10.90;99.90;;;;;;5018012;28;20423;-80
2021/12/16 16:50:08;;;;;;;59.30;30.57;;;10.90;99.90;;;;;;5013130;28;20400;-81
2021/12/16 16:52:42;;;;;;;67.90;31.03;;;10.90;99.90;;;;;;5012719;28;20467;-80